首页
METAR-TAF:

METAR-TAF

机场 :

内利斯空军基地

Nellis, 内华达州, 美国

纬度: 36-14N, 经度: 115-02W, 海拔: 570米

当前天气观测

该预报发布于30分钟前的19:58 UTC
风速5节,风向南转南东
温度 39°C
湿度 20%
气压 1015 hPa
能見度: 16.1公里
少量云层高于20000英尺

METAR: KLSV 231958Z AUTO 16005KT 10SM FEW200 39/12 A2998 RMK AO2 SLP121 T03870117 $

时间: 13:28 (20:28 UTC)

预报

该预报发布于5小时和28分钟前的15:00 UTC
预报有效从23日的 15点(UTC)到 24日的 21点(UTC)
风速6节,风向多变
能见度10公里或以上
少量云层高于10000英尺
多云层高于15000英尺
成为
从 23日的 16点(UTC)到 23日的 17点(UTC)
风速9节,风向南转南东
能见度10公里或以上
少量云层高于10000英尺
多云层高于15000英尺
成为
从 23日的 18点(UTC)到 23日的 19点(UTC)
风速12节,风向,有时为18节阵风
能见度10公里或以上
散云层高于10000英尺
多云层高于15000英尺
附近有阵雨
短暂存在
从 23日的 21点(UTC)到 24日的 03点(UTC)
风速15节,风向多变,有时为35节阵风
多云层高于10000英尺, 积雨云.
附近有雷暴
成为
从 24日的 04点(UTC)到 24日的 05点(UTC)
风速6节,风向多变
能见度10公里或以上
散云层高于10000英尺
成为
从 24日的 15点(UTC)到 24日的 16点(UTC)
风速9节,风向南转西南
能见度10公里或以上
多云层高于10000英尺

TAF: KLSV 231500Z 2315/2421 VRB06KT 9999 FEW100 BKN150 QNH3000INS BECMG 2316/2317 16009KT 9999 FEW100 BKN150 QNH2999INS BECMG 2318/2319 17012G18KT 9999 VCSH SCT100 BKN150 QNH2998INS TEMPO 2321/2403 VRB15G35KT VCTS BKN100CB 520009 BECMG 2404/2405 VRB06KT 9999 NSW SCT100 QNH2992INS BECMG 2415/2416 20009KT 9999 BKN100 QNH3000INS TX42/2323Z TN31/2412Z

超过4000个机场的气象观测和天气预报(METAR&TAF报告)。

可查询的气象台以黄色和红色小点在地图上表示。

将鼠标移到小点上方,可查看气象台名称。

然后点击查看天气观测和预报。

如需切换地图:点击带黑十字的绿色按钮放大地图;点击带横线的绿色按钮缩小地图;或者点击绿色箭头查看邻近地区的地图。


METAR-TAF: